CW0354 West Islip NY US current weather conditions

sailwx.info

Wind from 195 at 0 knots gusting 1

Air temperature 15.6° C
Dewpoint 14.3° C

Last reported at 2019-Oct-14 13:09 UTC.
Time now 2019-Oct-14 14:01 UTC

Location: N 40°42' W 073°18'.
View on Google Maps.

See reports from other nearby stations

  
Tides and Currents Weather Stations Pressure Air Temp Water Temp Dewpoint Dewpoint Depression Visibility Wind Speed Wind Dir Waves Ship Positions
date/time (UTC)wind fromknots sea level pressurealtimeterstation pressurevisibilityair tempwater tempwave heightnotes
2019-Oct-14 13:09 195 0 gusting 1 15.6
2019-Oct-14 13:04 265 15.6
2019-Oct-14 12:59 265 15.6
2019-Oct-14 12:54 265 15.6
2019-Oct-14 12:49 265 15.6
2019-Oct-14 12:39 323 0 gusting 2 15.0
2019-Oct-14 12:29 025 15.0
2019-Oct-14 12:24 003 0 gusting 4 15.0
2019-Oct-14 12:19 328 1 gusting 4 14.4
2019-Oct-14 12:09 343 1 gusting 5 14.4
2019-Oct-14 12:04 002 2 gusting 5 15.0
2019-Oct-14 11:59 358 4 gusting 6 15.0
2019-Oct-14 11:54 350 2 gusting 6 15.0
2019-Oct-14 11:29 023 1 gusting 4 14.4
2019-Oct-14 11:24 004 1 gusting 2 14.4
2019-Oct-14 11:19 15.0
2019-Oct-14 11:14 324 0 gusting 2 15.0
2019-Oct-14 11:09 006 0 gusting 1 15.0
2019-Oct-14 10:44 080 1 gusting 5 14.4
2019-Oct-14 10:39 121 1 gusting 4 14.4
2019-Oct-14 10:19 114 2 gusting 4 14.4
2019-Oct-14 10:14 121 1 gusting 2 15.0
2019-Oct-14 10:09 102 0 gusting 2 15.0
2019-Oct-14 10:04 117 0 gusting 2 15.0
2019-Oct-14 09:44 071 0 gusting 2 15.0
2019-Oct-14 09:29 079 0 gusting 2 15.0
2019-Oct-14 09:24 073 1 gusting 4 15.0
2019-Oct-14 09:14 089 1 gusting 4 15.0
2019-Oct-14 09:04 067 2 gusting 5 15.0
2019-Oct-14 08:54 135 2 gusting 5 15.0
2019-Oct-14 08:39 145 1 gusting 4 15.0
2019-Oct-14 08:34 134 2 gusting 4 15.0
2019-Oct-14 08:29 132 2 gusting 4 15.0
2019-Oct-14 08:14 112 1 gusting 2 15.0
2019-Oct-14 08:04 155 0 gusting 1 15.0
2019-Oct-14 07:59 126 2 gusting 6 15.0
2019-Oct-14 07:54 153 2 gusting 4 15.0
2019-Oct-14 07:49 120 1 gusting 4 15.0
2019-Oct-14 07:44 142 15.0
2019-Oct-14 07:39 170 0 gusting 2 15.0
2019-Oct-14 07:29 163 1 gusting 2 15.0
2019-Oct-14 07:14 150 15.0
2019-Oct-14 07:09 150 15.0
2019-Oct-14 06:59 150 15.0
2019-Oct-14 06:49 274 0 gusting 1 15.0
2019-Oct-14 06:44 190 0 gusting 1 15.0
2019-Oct-14 06:34 223 15.0
2019-Oct-14 06:29 223 15.0
2019-Oct-14 06:24 244 1 gusting 4 15.0
2019-Oct-14 06:19 218 0 gusting 5 15.0
2019-Oct-14 06:14 222 1 gusting 5 15.0
2019-Oct-14 06:09 210 3 gusting 6 15.0
2019-Oct-14 05:54 201 1 gusting 2 15.0
2019-Oct-14 05:44 223 2 gusting 5 15.0
2019-Oct-14 05:34 242 2 gusting 6 15.6
2019-Oct-14 05:19 232 2 gusting 6 15.6
2019-Oct-14 05:04 213 4 gusting 6 15.6
2019-Oct-14 04:59 219 4 gusting 6 16.1
2019-Oct-14 04:39 221 3 gusting 6 16.1
2019-Oct-14 04:14 215 16.1
2019-Oct-14 04:09 203 0 gusting 1 16.1
2019-Oct-14 04:04 182 16.1
2019-Oct-14 03:49 199 1 gusting 2 16.1
2019-Oct-14 03:44 248 2 gusting 5 16.1
2019-Oct-14 03:34 232 16.1
2019-Oct-14 03:29 237 1 gusting 5 16.1
2019-Oct-14 03:24 222 1 gusting 4 16.1
2019-Oct-14 03:19 231 2 gusting 6 16.1
2019-Oct-14 03:14 218 2 gusting 4 16.1
2019-Oct-14 03:09 218 1 gusting 5 16.1
2019-Oct-14 03:04 239 1 gusting 5 16.1
2019-Oct-14 02:54 198 1 gusting 5 16.1
2019-Oct-14 02:39 240 2 gusting 4 16.1
2019-Oct-14 02:29 234 2 gusting 6 16.1
2019-Oct-14 02:24 230 2 gusting 6 16.1
2019-Oct-14 02:19 218 1 gusting 5 16.1
2019-Oct-14 02:04 216 2 gusting 5 15.6
2019-Oct-14 01:59 223 2 gusting 6 15.6
2019-Oct-14 01:44 211 2 gusting 5 15.6
2019-Oct-14 01:39 219 3 gusting 6 15.6
2019-Oct-14 01:34 210 2 gusting 5 15.6
2019-Oct-14 01:24 221 1 gusting 6 15.6
2019-Oct-14 01:14 211 2 gusting 5 15.6
2019-Oct-14 01:04 211 1 gusting 4 15.6
2019-Oct-14 00:59 219 2 gusting 4 15.6
2019-Oct-14 00:54 223 1 gusting 4 15.6
2019-Oct-14 00:49 223 1 gusting 5 15.6
2019-Oct-14 00:39 224 2 gusting 6 15.6
2019-Oct-14 00:34 232 1 gusting 2 15.6
2019-Oct-14 00:29 222 1 gusting 4 15.6
2019-Oct-14 00:24 223 3 gusting 6 15.6
2019-Oct-14 00:19 233 2 gusting 5 15.6
2019-Oct-14 00:14 208 1 gusting 4 15.6
2019-Oct-14 00:09 226 1 gusting 4 15.6
2019-Oct-14 00:04 205 0 gusting 4 15.6
2019-Oct-13 23:59 225 1 gusting 4 15.6
2019-Oct-13 23:54 237 2 gusting 5 15.6
2019-Oct-13 23:49 236 2 gusting 5 15.6
2019-Oct-13 23:44 218 1 gusting 2 15.6
2019-Oct-13 23:39 238 2 gusting 4 15.6
2019-Oct-13 23:34 226 15.6
2019-Oct-13 23:29 231 0 gusting 2 15.6
2019-Oct-13 23:24 211 15.6
2019-Oct-13 23:14 260 16.1
2019-Oct-13 23:04 182 16.1
2019-Oct-13 22:59 232 1 gusting 1 16.1
2019-Oct-13 22:44 252 0 gusting 1 16.1
2019-Oct-13 22:39 228 0 gusting 2 16.1
2019-Oct-13 22:34 229 16.1
2019-Oct-13 22:24 174 0 gusting 1 16.1
2019-Oct-13 22:09 187 1 gusting 4 16.7
2019-Oct-13 22:04 234 1 gusting 2 16.7
2019-Oct-13 21:54 245 1 gusting 5 17.2
2019-Oct-13 21:49 246 2 gusting 6 17.2
2019-Oct-13 21:39 241 4 gusting 6 17.8
2019-Oct-13 21:34 226 1 gusting 4 17.8
2019-Oct-13 21:29 234 1 gusting 4 17.8
2019-Oct-13 21:24 209 1 gusting 4 18.3
2019-Oct-13 21:19 229 1 gusting 5 18.3
2019-Oct-13 20:59 231 2 gusting 4 18.3
2019-Oct-13 20:49 237 5 gusting 7 18.3
2019-Oct-13 20:39 230 4 gusting 6 18.3
2019-Oct-13 20:34 242 5 gusting 6 18.9
2019-Oct-13 20:19 233 2 gusting 6 19.4
2019-Oct-13 20:14 226 2 gusting 5 19.4
2019-Oct-13 20:04 213 1 gusting 5 19.4
2019-Oct-13 19:59 216 1 gusting 4 19.4
2019-Oct-13 19:49 211 2 gusting 6 19.4
2019-Oct-13 19:44 226 4 gusting 6 19.4
2019-Oct-13 19:39 238 2 gusting 6 19.4
2019-Oct-13 19:34 197 2 gusting 5 19.4
2019-Oct-13 19:29 205 2 gusting 5 19.4
2019-Oct-13 19:24 196 1 gusting 5 19.4
2019-Oct-13 19:19 237 2 gusting 4 19.4
2019-Oct-13 18:59 198 2 gusting 5 20.0
2019-Oct-13 18:49 210 1 gusting 5 20.0
2019-Oct-13 18:44 209 2 gusting 6 20.0
2019-Oct-13 18:24 214 2 gusting 6 19.4
2019-Oct-13 18:09 210 4 gusting 6 19.4
2019-Oct-13 17:54 013 18.3
2019-Oct-13 17:39 011 2 gusting 5 18.9
2019-Oct-13 17:24 254 17.8
2019-Oct-13 17:19 330 2 gusting 6 17.8
2019-Oct-13 17:14 012 1 gusting 5 17.8
2019-Oct-13 16:59 327 1 gusting 4 18.3
2019-Oct-13 16:54 038 0 gusting 4 18.3
2019-Oct-13 16:49 255 1 gusting 4 18.3
2019-Oct-13 16:44 003 0 gusting 4 18.3
2019-Oct-13 16:29 320 3 gusting 6 17.8
2019-Oct-13 16:09 045 2 gusting 4 17.8
2019-Oct-13 15:59 021 4 gusting 6 17.2
2019-Oct-13 15:49 008 4 gusting 7 17.2
2019-Oct-13 15:09 017 4 gusting 6 16.7
2019-Oct-13 15:04 273 1 gusting 7 16.7
2019-Oct-13 14:59 002 4 gusting 7 16.7
2019-Oct-13 14:54 026 4 gusting 10 16.7
2019-Oct-13 14:44 042 2 gusting 6 16.1
2019-Oct-13 14:39 042 3 gusting 7 16.1
2019-Oct-13 14:34 16.1
2019-Oct-13 14:24 008 3 gusting 10 15.6
2019-Oct-13 14:19 003 4 gusting 10 15.6
2019-Oct-13 13:59 022 2 gusting 7 15.0
2019-Oct-13 13:54 033 5 gusting 7 15.0
2019-Oct-13 13:44 030 4 gusting 8 15.0
2019-Oct-13 13:39 025 4 gusting 10 15.6
2019-Oct-13 13:24 036 6 gusting 14 15.0
2019-Oct-13 13:14 015 7 gusting 13 15.0
2019-Oct-13 13:09 028 5 gusting 11 14.4
2019-Oct-13 13:04 009 5 gusting 11 14.4
2019-Oct-13 12:54 041 5 gusting 11 14.4
2019-Oct-13 12:39 029 5 gusting 10 13.9
2019-Oct-13 12:19 036 6 gusting 10 13.3
2019-Oct-13 12:09 023 5 gusting 8 12.8
2019-Oct-13 11:59 025 4 gusting 6 12.8
2019-Oct-13 11:49 024 2 gusting 6 12.2
2019-Oct-13 11:44 033 3 gusting 6 12.2
2019-Oct-13 11:34 022 2 gusting 6 12.2
2019-Oct-13 11:19 011 3 gusting 6 12.2
2019-Oct-13 11:14 017 4 gusting 6 12.2
2019-Oct-13 10:59 015 3 gusting 6 12.2
2019-Oct-13 10:39 010 2 gusting 5 12.8
2019-Oct-13 10:29 019 2 gusting 6 12.8
2019-Oct-13 10:14 341 1 gusting 6 12.2
2019-Oct-13 10:09 358 1 gusting 5 12.2
2019-Oct-13 09:59 003 2 gusting 6 12.2
2019-Oct-13 09:54 12.2
2019-Oct-13 09:29 343 1 gusting 2 12.8
2019-Oct-13 09:09 002 2 gusting 6 12.2
2019-Oct-13 09:04 336 1 gusting 5 12.2
2019-Oct-13 08:34 336 0 gusting 4 12.2
2019-Oct-13 08:29 319 0 gusting 2 12.2
2019-Oct-13 08:19 307 0 gusting 4 12.2
2019-Oct-13 08:09 270 0 gusting 2 12.8
2019-Oct-13 08:04 312 0 gusting 4 12.8
2019-Oct-13 07:59 322 1 gusting 2 12.8
2019-Oct-13 07:54 315 0 gusting 2 12.8
2019-Oct-13 07:49 338 1 gusting 4 12.8
2019-Oct-13 07:39 298 1 gusting 4 12.8
2019-Oct-13 07:34 289 0 gusting 1 12.8
2019-Oct-13 07:24 333 0 gusting 4 13.3
2019-Oct-13 07:14 328 1 gusting 4 13.3
2019-Oct-13 06:54 323 2 gusting 5 13.3
2019-Oct-13 06:34 337 0 gusting 2 13.3
2019-Oct-13 06:29 319 0 gusting 1 12.8
2019-Oct-13 06:19 309 13.3
2019-Oct-13 06:14 309 13.3
2019-Oct-13 05:54 274 13.3
2019-Oct-13 05:44 291 1 gusting 2 13.3
2019-Oct-13 05:29 287 1 gusting 2 13.3
2019-Oct-13 05:24 294 1 gusting 2 13.9
2019-Oct-13 05:14 260 13.9
2019-Oct-13 04:59 272 13.9
2019-Oct-13 04:54 254 0 gusting 2 13.9
2019-Oct-13 04:49 266 1 gusting 2 13.9
2019-Oct-13 04:39 248 0 gusting 2 14.4
2019-Oct-13 04:34 274 1 gusting 2 14.4
2019-Oct-13 04:24 273 1 gusting 2 14.4
2019-Oct-13 04:14 282 1 gusting 4 14.4
2019-Oct-13 04:09 279 1 gusting 2 14.4
2019-Oct-13 03:54 259 0 gusting 4 14.4
2019-Oct-13 03:49 234 1 gusting 4 14.4
2019-Oct-13 03:29 244 1 gusting 2 15.0
2019-Oct-13 03:24 240 1 gusting 2 15.0
2019-Oct-13 03:19 243 1 gusting 5 14.4
2019-Oct-13 03:14 205 1 gusting 4 14.4
2019-Oct-13 02:59 113 14.4
2019-Oct-13 02:54 103 14.4
2019-Oct-13 02:49 139 0 gusting 1 14.4
2019-Oct-13 02:39 233 0 gusting 1 14.4
2019-Oct-13 02:29 254 0 gusting 2 14.4
2019-Oct-13 02:24 232 1 gusting 1 14.4
2019-Oct-13 02:19 127 14.4
2019-Oct-13 02:09 194 0 gusting 1 14.4
2019-Oct-13 01:54 193 14.4
2019-Oct-13 01:49 193 14.4
2019-Oct-13 01:44 178 14.4
2019-Oct-13 01:39 201 0 gusting 1 14.4
2019-Oct-13 01:29 104 14.4
2019-Oct-13 01:14 104 14.4
2019-Oct-13 01:04 131 14.4
2019-Oct-13 00:59 131 14.4
2019-Oct-13 00:54 131 14.4
2019-Oct-13 00:44 131 14.4
2019-Oct-13 00:39 131 14.4
2019-Oct-13 00:34 131 14.4
2019-Oct-13 00:29 131 14.4
2019-Oct-13 00:24 131 14.4
2019-Oct-13 00:09 131 15.0
2019-Oct-13 00:04 131 15.0
2019-Oct-12 23:59 131 15.0
2019-Oct-12 23:54 131 15.0
2019-Oct-12 23:49 131 15.0
2019-Oct-12 23:44 131 15.6
2019-Oct-12 23:39 131 15.6
2019-Oct-12 23:29 131 15.6
2019-Oct-12 23:19 131 15.6
2019-Oct-12 23:14 199 15.6
2019-Oct-12 23:09 199 15.6
2019-Oct-12 23:04 199 15.6
2019-Oct-12 22:49 199 16.1
2019-Oct-12 22:39 199 0 gusting 1 16.1
2019-Oct-12 22:24 217 0 gusting 1 16.1
2019-Oct-12 22:19 230 1 gusting 2 16.7
2019-Oct-12 22:14 230 1 gusting 2 16.7
2019-Oct-12 22:04 242 1 gusting 2 16.7
2019-Oct-12 21:59 249 3 gusting 6 17.2
2019-Oct-12 21:49 236 2 gusting 5 17.8
2019-Oct-12 21:44 240 2 gusting 5 17.8
2019-Oct-12 21:29 229 2 gusting 4 18.3
2019-Oct-12 21:19 210 3 gusting 6 18.9
2019-Oct-12 21:04 209 2 gusting 6 19.4
2019-Oct-12 20:49 281 2 gusting 6 19.4
2019-Oct-12 20:44 116 0 gusting 4 19.4
2019-Oct-12 20:34 287 1 gusting 5 19.4
2019-Oct-12 20:29 353 2 gusting 6 19.4
2019-Oct-12 20:24 069 1 gusting 5 19.4
2019-Oct-12 20:19 006 2 gusting 4 19.4
2019-Oct-12 20:09 006 3 gusting 6 19.4
2019-Oct-12 19:59 018 1 gusting 4 18.9
2019-Oct-12 19:49 032 4 gusting 7 18.9
2019-Oct-12 19:44 344 2 gusting 5 18.9
2019-Oct-12 19:39 358 1 gusting 6 18.9
2019-Oct-12 19:34 056 0 gusting 5 18.3
2019-Oct-12 19:29 346 2 gusting 6 18.3
2019-Oct-12 19:24 333 3 gusting 6 18.3
2019-Oct-12 19:14 014 2 gusting 6 17.8
2019-Oct-12 18:54 025 5 gusting 8 17.8
2019-Oct-12 18:49 17.8
2019-Oct-12 18:44 021 3 gusting 6 17.8
2019-Oct-12 18:34 055 4 gusting 6 17.8
2019-Oct-12 18:29 028 2 gusting 6 17.8
2019-Oct-12 18:24 051 5 gusting 6 17.2
2019-Oct-12 18:14 040 4 gusting 6 17.2
2019-Oct-12 18:09 041 5 gusting 6 17.2
2019-Oct-12 17:59 024 2 gusting 6 16.7
2019-Oct-12 17:54 339 2 gusting 8 17.2
2019-Oct-12 17:39 011 4 gusting 8 16.7
2019-Oct-12 17:34 026 2 gusting 5 16.1
2019-Oct-12 17:24 343 4 gusting 8 16.1
2019-Oct-12 17:19 027 2 gusting 6 16.1
2019-Oct-12 17:09 350 1 gusting 5 16.1
2019-Oct-12 16:49 013 2 gusting 6 15.6
2019-Oct-12 16:44 035 5 gusting 7 16.1
2019-Oct-12 16:39 024 5 gusting 8 16.1
2019-Oct-12 16:34 053 6 gusting 11 16.1
2019-Oct-12 16:24 033 4 gusting 7 15.6
2019-Oct-12 16:19 026 2 gusting 6 15.6
2019-Oct-12 16:09 035 4 gusting 6 15.6
2019-Oct-12 15:54 023 5 gusting 7 15.0
2019-Oct-12 15:44 011 4 gusting 8 15.0
2019-Oct-12 15:39 025 4 gusting 10 15.0
2019-Oct-12 15:34 030 3 gusting 7 15.0
2019-Oct-12 15:24 061 4 gusting 7 15.0
2019-Oct-12 15:19 055 5 gusting 10 15.0
2019-Oct-12 15:14 063 3 gusting 6 15.0
2019-Oct-12 15:04 036 6 gusting 10 14.4
2019-Oct-12 14:59 048 6 gusting 11 14.4
2019-Oct-12 14:49 024 5 gusting 10 14.4
2019-Oct-12 14:34 024 6 gusting 8 13.9
2019-Oct-12 14:29 359 5 gusting 8 13.9
2019-Oct-12 14:24 024 4 gusting 8 13.9
2019-Oct-12 14:19 012 2 gusting 7 13.9